Time;durP1;ratioP1;P1;durP2;ratioP2;P2;SDS_P1;SDS_P2;PMS_P1;PMS_P2;Temp;Humidity;BMP_temperature;BMP_pressure;BME280_temperature;BME280_humidity;BME280_pressure;Samples;Min_cycle;Max_cycle;Signal;HPM_P1;HPM_P2
2021/06/21 00:00:58;;;;;;;12.73;9.27;;;;;;;23.80;62.16;99584.47;4905863;28;98029;-74
2021/06/21 00:03:24;;;;;;;12.77;9.63;;;;;;;23.80;61.53;99579.75;4924063;28;97708;-73
2021/06/21 00:05:50;;;;;;;12.15;9.70;;;;;;;23.98;61.59;99571.69;4905152;28;119758;-74
2021/06/21 00:08:16;;;;;;;13.73;9.80;;;;;;;24.00;61.56;99572.09;4904980;28;121937;-74
2021/06/21 00:10:43;;;;;;;12.13;9.52;;;;;;;23.74;61.80;99564.78;4921224;28;127109;-73
2021/06/21 00:13:09;;;;;;;11.23;9.98;;;;;;;23.74;62.11;99575.78;4922446;28;126430;-73
2021/06/21 00:15:35;;;;;;;12.63;9.35;;;;;;;23.92;61.55;99574.00;4923158;28;109103;-75
2021/06/21 00:18:01;;;;;;;11.82;9.55;;;;;;;23.85;61.57;99581.38;4904220;28;128626;-75
2021/06/21 00:20:27;;;;;;;13.48;10.00;;;;;;;23.90;61.60;99586.56;4922556;28;126774;-75
2021/06/21 00:22:54;;;;;;;12.40;9.57;;;;;;;23.96;61.50;99580.31;4929211;28;118462;-75
2021/06/21 00:25:20;;;;;;;11.02;9.50;;;;;;;23.71;61.87;99599.34;4909084;28;98128;-74
2021/06/21 00:27:47;;;;;;;13.85;9.70;;;;;;;23.67;62.18;99586.72;4942880;28;99232;-71
2021/06/21 00:30:14;;;;;;;12.98;10.05;;;;;;;23.83;61.84;99586.47;4942957;28;97999;-75
2021/06/21 00:32:41;;;;;;;12.15;9.50;;;;;;;23.33;62.82;99607.88;4908708;28;98419;-75
2021/06/21 00:35:09;;;;;;;14.20;10.77;;;;;;;23.08;63.49;99607.56;4924806;28;107222;-73
2021/06/21 00:37:35;;;;;;;13.27;10.55;;;;;;;23.50;62.87;99623.78;4942365;28;97929;-75
2021/06/21 00:40:02;;;;;;;13.52;10.40;;;;;;;23.22;63.18;99632.47;4942063;28;115814;-73
2021/06/21 00:42:28;;;;;;;13.38;10.65;;;;;;;23.53;62.96;99618.34;4939706;28;114664;-72
2021/06/21 00:44:55;;;;;;;12.50;10.32;;;;;;;23.33;63.02;99624.38;4943595;28;97865;-73
2021/06/21 00:47:21;;;;;;;10.90;9.73;;;;;;;23.43;63.23;99616.28;4941413;28;98701;-73
2021/06/21 00:49:47;;;;;;;13.23;9.48;;;;;;;23.55;62.82;99617.19;4940842;28;104065;-75
2021/06/21 00:52:17;;;;;;;11.55;9.50;;;;;;;23.53;62.75;99601.84;4923916;28;98558;-73
2021/06/21 00:54:44;;;;;;;11.65;9.25;;;;;;;23.38;63.15;99596.53;4923867;28;98043;-73
2021/06/21 00:57:11;;;;;;;12.90;9.70;;;;;;;23.50;62.91;99593.53;4922200;28;98799;-73
2021/06/21 00:59:37;;;;;;;14.93;9.68;;;;;;;23.38;62.56;99600.09;4920956;28;98825;-75
2021/06/21 01:02:06;;;;;;;13.65;9.35;;;;;;;23.46;62.29;99604.53;4904224;28;127974;-75
2021/06/21 01:04:32;;;;;;;13.48;9.13;;;;;;;23.57;61.87;99601.88;4920684;28;97774;-73
2021/06/21 01:06:58;;;;;;;11.73;9.18;;;;;;;23.24;62.43;99625.44;4921741;28;122511;-70
2021/06/21 01:09:24;;;;;;;12.60;9.93;;;;;;;23.04;63.80;99648.72;4919625;28;128048;-73
2021/06/21 01:12:13;;;;;;;12.93;9.43;;;;;;;23.22;63.15;99648.97;4905346;28;102716;-75
2021/06/21 01:14:50;;;;;;;14.65;9.73;;;;;;;23.34;63.25;99648.72;4921200;28;97882;-75
2021/06/21 01:17:19;;;;;;;12.00;9.32;;;;;;;23.48;62.60;99645.38;4908740;28;98184;-72
2021/06/21 01:20:27;;;;;;;15.05;9.13;;;;;;;23.57;62.55;99653.34;4924295;28;98509;-75
2021/06/21 01:23:36;;;;;;;11.13;8.63;;;;;;;23.55;62.21;99663.94;4942280;28;97717;-75
2021/06/21 01:26:12;;;;;;;11.85;9.30;;;;;;;23.51;62.78;99670.19;4942136;28;98064;-75
2021/06/21 01:29:02;;;;;;;11.73;8.70;;;;;;;23.57;62.61;99680.84;4894106;28;98523;-75
2021/06/21 01:32:18;;;;;;;12.07;9.10;;;;;;;23.59;62.96;99690.31;4923044;28;98772;-75
2021/06/21 01:34:50;;;;;;;12.57;9.15;;;;;;;23.40;62.98;99699.50;4922220;28;98230;-73
2021/06/21 01:37:18;;;;;;;12.25;9.07;;;;;;;23.46;62.87;99699.94;4904074;28;109656;-73
2021/06/21 01:39:45;;;;;;;11.80;9.02;;;;;;;23.60;62.60;99699.34;4919728;28;98587;-75
2021/06/21 01:42:14;;;;;;;12.95;8.35;;;;;;;23.57;62.05;99698.13;4888249;28;101245;-75
2021/06/21 01:44:43;;;;;;;14.82;8.38;;;;;;;23.59;62.08;99695.81;4922298;28;116358;-73
2021/06/21 01:47:13;;;;;;;12.35;8.50;;;;;;;23.62;61.71;99697.84;4905154;28;98002;-75
2021/06/21 01:49:40;;;;;;;14.13;7.78;;;;;;;23.68;61.32;99698.31;4904201;28;106651;-73
2021/06/21 01:52:10;;;;;;;15.20;7.63;;;;;;;23.82;60.96;99687.50;4921744;28;99071;-75
2021/06/21 01:54:37;;;;;;;9.10;7.05;;;;;;;23.75;60.29;99679.94;4904229;28;99196;-76
2021/06/21 01:57:03;;;;;;;11.25;7.65;;;;;;;23.55;60.97;99674.94;4917780;28;99365;-75
2021/06/21 01:59:30;;;;;;;9.23;6.88;;;;;;;23.78;60.05;99675.66;4941294;28;109429;-73
2021/06/21 02:01:58;;;;;;;12.38;7.43;;;;;;;23.85;60.15;99683.97;4939527;28;110238;-75
2021/06/21 02:04:25;;;;;;;10.02;7.75;;;;;;;23.30;61.92;99683.63;4923946;28;98299;-73
2021/06/21 02:06:51;;;;;;;17.77;7.97;;;;;;;23.59;61.00;99690.31;4922737;28;97729;-72
2021/06/21 02:09:21;;;;;;;14.63;8.02;;;;;;;23.74;60.77;99694.06;4921899;28;126435;-73
2021/06/21 02:11:48;;;;;;;13.52;7.85;;;;;;;23.73;60.79;99707.00;4907874;28;99272;-72
2021/06/21 02:14:14;;;;;;;13.55;8.25;;;;;;;23.73;60.73;99723.53;4922138;28;127428;-76
2021/06/21 02:16:40;;;;;;;11.93;8.20;;;;;;;23.55;61.31;99719.72;4939414;28;117125;-72
2021/06/21 02:19:06;;;;;;;12.52;8.13;;;;;;;23.42;61.92;99730.16;4938459;28;125955;-75
2021/06/21 02:21:32;;;;;;;15.63;9.05;;;;;;;23.34;62.08;99722.16;4907054;28;100061;-76
2021/06/21 02:23:58;;;;;;;13.60;8.45;;;;;;;23.44;62.59;99735.28;4917990;28;126455;-72
2021/06/21 02:26:25;;;;;;;11.82;8.05;;;;;;;23.34;62.92;99735.91;4902573;28;118746;-72
2021/06/21 02:28:58;;;;;;;12.73;8.20;;;;;;;23.25;63.66;99750.72;4903240;28;97826;-76
2021/06/21 02:31:24;;;;;;;11.15;7.28;;;;;;;23.35;63.41;99743.81;4904903;28;98942;-72
2021/06/21 02:33:50;;;;;;;12.38;7.22;;;;;;;23.47;63.28;99759.31;4920576;28;126645;-72
2021/06/21 02:36:17;;;;;;;10.13;6.75;;;;;;;23.53;63.39;99753.09;4921239;28;116968;-72
2021/06/21 02:38:44;;;;;;;13.68;6.50;;;;;;;23.47;63.34;99753.81;4918770;28;118973;-72
2021/06/21 02:41:10;;;;;;;10.13;6.07;;;;;;;23.37;63.41;99748.94;4902579;28;126420;-75
2021/06/21 02:43:36;;;;;;;10.57;5.78;;;;;;;23.52;63.17;99750.72;4919535;28;98570;-77
2021/06/21 02:46:02;;;;;;;8.13;5.13;;;;;;;23.39;63.31;99743.88;4919315;28;115658;-75
2021/06/21 02:48:28;;;;;;;8.05;5.30;;;;;;;23.44;63.61;99735.28;4920865;28;98570;-77
2021/06/21 02:50:55;;;;;;;10.07;5.10;;;;;;;23.44;63.20;99738.03;4917666;28;128062;-75
2021/06/21 02:53:39;;;;;;;6.78;4.93;;;;;;;23.40;63.50;99717.94;4904269;28;97948;-76
2021/06/21 02:56:36;;;;;;;8.88;4.70;;;;;;;23.46;63.43;99720.00;4904072;28;97747;-71
2021/06/21 02:59:12;;;;;;;8.23;4.72;;;;;;;23.44;63.42;99724.28;4906018;28;98474;-76
2021/06/21 03:01:52;;;;;;;7.97;4.50;;;;;;;23.51;63.89;99713.38;4920904;28;108321;-72
2021/06/21 03:04:19;;;;;;;8.65;4.72;;;;;;;23.42;63.59;99719.16;4902714;28;98039;-72
2021/06/21 03:06:46;;;;;;;7.65;4.50;;;;;;;23.19;64.39;99712.94;4903230;28;98126;-75
2021/06/21 03:09:12;;;;;;;7.53;4.72;;;;;;;23.39;64.25;99711.66;4902182;28;126980;-75
2021/06/21 03:11:39;;;;;;;6.68;4.57;;;;;;;23.43;64.05;99703.47;4918726;28;119429;-72
2021/06/21 03:14:05;;;;;;;8.20;4.53;;;;;;;23.53;63.73;99698.09;4902516;28;103114;-75
2021/06/21 03:16:31;;;;;;;6.82;4.47;;;;;;;23.47;64.08;99693.31;4887136;28;98207;-76
2021/06/21 03:18:57;;;;;;;8.48;4.55;;;;;;;23.08;64.79;99698.25;4904070;28;98025;-76
2021/06/21 03:21:23;;;;;;;7.00;5.03;;;;;;;23.09;65.12;99705.31;4931388;28;128629;-71
2021/06/21 03:23:53;;;;;;;10.35;5.38;;;;;;;23.05;65.16;99697.03;4925147;28;127297;-72
2021/06/21 03:26:28;;;;;;;8.35;5.22;;;;;;;23.30;64.77;99693.84;4945047;28;97751;-76
2021/06/21 03:28:54;;;;;;;7.63;4.78;;;;;;;23.22;64.87;99693.72;4925579;28;105122;-76
2021/06/21 03:31:21;;;;;;;9.10;4.80;;;;;;;23.17;65.17;99690.53;4944833;28;97750;-72
2021/06/21 03:33:47;;;;;;;7.95;5.10;;;;;;;23.19;65.18;99686.25;4925587;28;98857;-76
2021/06/21 03:36:13;;;;;;;6.85;5.10;;;;;;;23.36;64.94;99678.63;4924281;28;117728;-76
2021/06/21 03:38:39;;;;;;;10.50;5.45;;;;;;;23.44;64.59;99672.84;4942509;28;113367;-72
2021/06/21 03:41:05;;;;;;;9.55;5.10;;;;;;;23.05;65.68;99661.28;4925238;28;103421;-75
2021/06/21 03:43:33;;;;;;;8.07;5.00;;;;;;;23.35;65.35;99644.84;4941221;28;127451;-72
2021/06/21 03:46:01;;;;;;;8.38;5.15;;;;;;;23.38;64.63;99635.03;4944419;28;97809;-72
2021/06/21 03:48:28;;;;;;;8.85;5.60;;;;;;;23.37;64.73;99634.25;4941365;28;115437;-74
2021/06/21 03:50:54;;;;;;;8.63;5.40;;;;;;;23.25;64.98;99638.03;4925507;28;98868;-76
2021/06/21 03:53:24;;;;;;;8.55;5.63;;;;;;;23.21;65.39;99630.91;4944530;28;98120;-76
2021/06/21 03:55:50;;;;;;;6.38;5.30;;;;;;;23.42;64.02;99611.13;4941922;28;98079;-76
2021/06/21 03:58:17;;;;;;;9.20;5.32;;;;;;;23.15;65.00;99640.63;4943032;28;128024;-75
2021/06/21 04:00:43;;;;;;;9.60;5.43;;;;;;;22.82;66.14;99638.53;4925190;28;98282;-76
2021/06/21 04:03:09;;;;;;;8.00;5.20;;;;;;;23.02;65.99;99616.09;4922435;28;126460;-75
2021/06/21 04:05:37;;;;;;;8.55;5.45;;;;;;;23.18;65.32;99617.88;4905563;28;117142;-75
2021/06/21 04:08:05;;;;;;;8.00;5.50;;;;;;;23.13;65.66;99626.47;4906315;28;97982;-76
2021/06/21 04:10:32;;;;;;;9.52;5.53;;;;;;;22.97;66.13;99616.44;4905766;28;99186;-74
2021/06/21 04:12:58;;;;;;;12.20;5.53;;;;;;;23.17;65.85;99610.81;4921838;28;98250;-75
2021/06/21 04:15:28;;;;;;;8.77;5.85;;;;;;;22.99;66.06;99614.13;4921846;28;97934;-75
2021/06/21 04:17:55;;;;;;;11.02;6.72;;;;;;;23.16;67.51;99610.03;4934586;28;98240;-74
2021/06/21 04:20:22;;;;;;;13.35;6.45;;;;;;;23.13;67.79;99615.47;4943597;28;110281;-81
2021/06/21 04:22:48;;;;;;;8.15;6.30;;;;;;;22.97;67.26;99613.69;4924398;28;115292;-75
2021/06/21 04:25:16;;;;;;;8.50;6.10;;;;;;;22.83;69.28;99607.16;4908348;28;118377;-75
2021/06/21 04:27:42;;;;;;;8.30;6.07;;;;;;;23.02;67.18;99601.56;4924681;28;98469;-79
2021/06/21 04:30:14;;;;;;;9.07;6.63;;;;;;;22.95;68.80;99605.03;4940092;28;113750;-76
2021/06/21 04:32:40;;;;;;;10.43;6.25;;;;;;;22.95;67.71;99605.03;4943048;28;97795;-75
2021/06/21 04:35:10;;;;;;;9.00;6.68;;;;;;;22.69;67.91;99607.75;4943119;28;100387;-76
2021/06/21 04:37:36;;;;;;;11.00;6.90;;;;;;;22.98;67.44;99603.50;4924283;28;101250;-79
2021/06/21 04:40:03;;;;;;;12.75;6.70;;;;;;;23.12;68.00;99602.91;4923648;28;125788;-76
2021/06/21 04:42:29;;;;;;;8.93;6.72;;;;;;;23.07;67.16;99601.28;4924725;28;111050;-82
2021/06/21 04:44:55;;;;;;;10.82;6.63;;;;;;;22.75;68.38;99615.31;4921878;28;114711;-76
2021/06/21 04:47:24;;;;;;;8.20;6.65;;;;;;;22.97;68.17;99616.44;4920057;28;125906;-76
2021/06/21 04:49:54;;;;;;;9.70;6.75;;;;;;;23.19;67.19;99628.53;4905270;28;99369;-80
2021/06/21 04:52:23;;;;;;;10.55;6.25;;;;;;;23.16;67.08;99625.72;4873050;28;99242;-80
2021/06/21 04:54:50;;;;;;;8.30;6.28;;;;;;;23.19;67.30;99622.25;4890353;28;98102;-75
2021/06/21 04:57:16;;;;;;;10.82;6.90;;;;;;;23.39;66.41;99618.19;4921194;28;98040;-76
2021/06/21 04:59:42;;;;;;;8.18;6.55;;;;;;;23.27;65.34;99626.66;4922800;28;104073;-75
2021/06/21 05:02:08;;;;;;;8.10;6.18;;;;;;;23.17;67.07;99624.56;4920362;28;100285;-80
2021/06/21 05:04:34;;;;;;;10.20;6.40;;;;;;;23.21;67.56;99614.41;4887658;28;117779;-76
2021/06/21 05:07:02;;;;;;;7.80;6.13;;;;;;;23.17;66.26;99619.84;4920167;28;109922;-80
2021/06/21 05:09:28;;;;;;;9.80;6.63;;;;;;;23.32;65.91;99618.09;4904711;28;106332;-76
2021/06/21 05:11:54;;;;;;;11.27;6.50;;;;;;;23.33;65.54;99616.91;4919627;28;127573;-76
2021/06/21 05:14:20;;;;;;;9.93;6.28;;;;;;;23.52;64.65;99618.72;4915378;28;115735;-75
2021/06/21 05:16:46;;;;;;;10.07;6.15;;;;;;;23.36;65.90;99612.63;4922564;28;128080;-75
2021/06/21 05:19:12;;;;;;;9.80;6.35;;;;;;;23.35;65.84;99608.31;4940855;28;127146;-79
2021/06/21 05:21:38;;;;;;;9.98;6.38;;;;;;;23.69;64.98;99618.16;4942919;28;98461;-80
2021/06/21 05:24:04;;;;;;;12.32;6.60;;;;;;;24.05;63.89;99624.06;4923262;28;117999;-75
2021/06/21 05:26:30;;;;;;;9.38;5.90;;;;;;;24.16;63.44;99619.44;4923350;28;108731;-80
2021/06/21 05:28:56;;;;;;;9.73;6.43;;;;;;;24.11;63.42;99622.53;4941158;28;123255;-74
2021/06/21 05:31:23;;;;;;;9.05;6.03;;;;;;;24.24;62.65;99612.03;4940507;28;98127;-75
2021/06/21 05:33:49;;;;;;;9.38;5.60;;;;;;;24.74;60.76;99620.72;4942629;28;98067;-80
2021/06/21 05:36:15;;;;;;;6.70;5.75;;;;;;;24.83;60.54;99614.88;4907526;28;98337;-80
2021/06/21 05:38:41;;;;;;;7.88;5.90;;;;;;;24.99;60.33;99618.13;4923149;28;98433;-81
2021/06/21 05:41:07;;;;;;;7.82;5.50;;;;;;;25.18;59.60;99623.38;4922933;28;114508;-75
2021/06/21 05:43:33;;;;;;;7.57;5.82;;;;;;;25.60;58.48;99629.47;4904586;28;117692;-76
2021/06/21 05:46:00;;;;;;;7.97;5.57;;;;;;;25.82;57.31;99636.69;4903273;28;125930;-75
2021/06/21 05:48:26;;;;;;;8.30;5.35;;;;;;;26.44;55.35;99636.34;4904566;28;98212;-82
2021/06/21 05:50:52;;;;;;;8.57;6.10;;;;;;;26.92;54.52;99638.75;4903454;28;125767;-77
2021/06/21 05:53:18;;;;;;;8.68;5.72;;;;;;;26.91;54.02;99634.38;4920805;28;98106;-76
2021/06/21 05:55:44;;;;;;;9.50;5.50;;;;;;;27.78;51.37;99634.94;4903017;28;127770;-81
2021/06/21 05:58:10;;;;;;;8.57;5.45;;;;;;;28.68;48.90;99641.44;4919679;28;98858;-76
2021/06/21 06:00:36;;;;;;;8.18;5.45;;;;;;;30.74;43.61;99637.25;4903144;28;126348;-76
2021/06/21 06:03:03;;;;;;;8.52;5.47;;;;;;;32.14;41.21;99634.44;4887630;28;107886;-77
2021/06/21 06:05:29;;;;;;;7.80;4.95;;;;;;;32.04;40.54;99652.19;4903526;28;98004;-82
2021/06/21 06:07:55;;;;;;;7.90;5.57;;;;;;;32.12;40.85;99640.44;4919750;28;98232;-82
2021/06/21 06:10:21;;;;;;;9.43;5.90;;;;;;;30.70;42.93;99644.84;4908334;28;127766;-76
2021/06/21 06:12:47;;;;;;;9.80;5.45;;;;;;;31.66;41.47;99647.78;4922747;28;97925;-81
2021/06/21 06:15:14;;;;;;;8.73;5.30;;;;;;;32.43;40.16;99645.72;4922028;28;126685;-78
2021/06/21 06:17:40;;;;;;;7.88;5.10;;;;;;;32.56;40.16;99659.72;4923351;28;98201;-77
2021/06/21 06:20:07;;;;;;;7.70;5.10;;;;;;;34.22;36.51;99651.91;4940723;28;124989;-83
2021/06/21 06:22:33;;;;;;;7.82;5.18;;;;;;;34.30;36.07;99654.03;4923378;28;97856;-82
2021/06/21 06:24:59;;;;;;;6.45;5.00;;;;;;;34.00;37.59;99655.41;4907048;28;100632;-82
2021/06/21 06:27:25;;;;;;;8.43;5.00;;;;;;;33.59;37.09;99656.97;4922221;28;126142;-82
2021/06/21 06:29:51;;;;;;;6.18;5.40;;;;;;;33.54;37.85;99654.75;4904948;28;126872;-76
2021/06/21 06:32:18;;;;;;;8.73;5.55;;;;;;;34.04;36.34;99647.69;4938294;28;116757;-82
2021/06/21 06:34:44;;;;;;;7.85;5.30;;;;;;;32.69;40.42;99655.78;4922529;28;124706;-83
2021/06/21 06:37:10;;;;;;;8.70;5.18;;;;;;;32.65;40.03;99651.53;4916679;28;128277;-76
2021/06/21 06:39:37;;;;;;;7.88;5.10;;;;;;;31.05;43.57;99651.78;4931544;28;98197;-81
2021/06/21 06:42:04;;;;;;;6.90;5.28;;;;;;;29.57;46.41;99662.75;4937718;28;97860;-82
2021/06/21 06:44:31;;;;;;;7.25;5.40;;;;;;;29.67;46.99;99655.50;4922125;28;98632;-78
2021/06/21 06:46:57;;;;;;;7.43;5.38;;;;;;;30.28;46.16;99649.88;4938085;28;99031;-79
2021/06/21 06:49:23;;;;;;;8.27;5.95;;;;;;;29.49;47.03;99654.91;4887675;28;98972;-82
2021/06/21 06:51:53;;;;;;;9.48;5.47;;;;;;;29.83;46.89;99655.69;4918285;28;117840;-76
2021/06/21 06:54:22;;;;;;;7.78;6.00;;;;;;;30.43;45.30;99658.00;4891224;28;99826;-75
2021/06/21 06:57:02;;;;;;;8.85;5.68;;;;;;;29.26;46.71;99659.13;4908008;28;98534;-80
2021/06/21 06:59:35;;;;;;;7.05;5.55;;;;;;;29.22;47.71;99666.69;4894013;28;98740;-80
2021/06/21 07:02:14;;;;;;;8.02;5.72;;;;;;;30.31;45.75;99659.38;4922561;28;101115;-80
2021/06/21 07:04:40;;;;;;;9.85;5.18;;;;;;;31.67;42.61;99662.50;4932304;28;98780;-72
2021/06/21 07:07:07;;;;;;;6.93;4.97;;;;;;;31.76;42.89;99668.28;4924632;28;98708;-73
2021/06/21 07:09:34;;;;;;;8.43;5.50;;;;;;;31.97;42.83;99658.69;4922084;28;108491;-76
2021/06/21 07:12:01;;;;;;;6.90;4.63;;;;;;;32.51;43.08;99666.63;4917637;28;98068;-77
2021/06/21 07:14:27;;;;;;;8.18;4.78;;;;;;;32.15;42.94;99661.09;4930019;28;128528;-77
2021/06/21 07:16:53;;;;;;;7.88;5.25;;;;;;;32.51;42.17;99669.41;4924331;28;108808;-77
2021/06/21 07:19:20;;;;;;;9.43;5.22;;;;;;;32.74;41.19;99665.66;4922188;28;99413;-72
2021/06/21 07:21:50;;;;;;;7.40;4.80;;;;;;;32.64;42.05;99669.50;4906998;28;98070;-72
2021/06/21 07:24:16;;;;;;;6.90;4.70;;;;;;;33.30;40.24;99670.97;4931268;28;98067;-77
2021/06/21 07:26:43;;;;;;;7.80;4.68;;;;;;;33.42;40.56;99678.59;4943698;28;99194;-72
2021/06/21 07:29:09;;;;;;;7.97;4.30;;;;;;;33.74;39.55;99685.28;4943149;28;97979;-72
2021/06/21 07:31:35;;;;;;;9.40;4.65;;;;;;;32.54;42.12;99681.69;4942485;28;98015;-72
2021/06/21 07:34:01;;;;;;;7.30;4.53;;;;;;;33.51;41.17;99696.72;4943249;28;98708;-75
2021/06/21 07:36:28;;;;;;;10.20;4.38;;;;;;;31.98;42.59;99693.69;4941608;28;112766;-79
2021/06/21 07:38:54;;;;;;;6.60;4.07;;;;;;;31.61;44.41;99698.44;4927658;28;127644;-73
2021/06/21 07:41:20;;;;;;;8.77;4.18;;;;;;;31.49;44.13;99694.28;4922571;28;98573;-73
2021/06/21 07:43:46;;;;;;;9.82;4.05;;;;;;;31.44;44.23;99700.38;4920308;28;128752;-73
2021/06/21 07:46:12;;;;;;;5.75;2.92;;;;;;;31.38;43.27;99690.16;4924159;28;128376;-73
2021/06/21 07:48:41;;;;;;;8.02;3.65;;;;;;;31.12;41.91;99694.56;4934573;28;98524;-73
2021/06/21 07:51:10;;;;;;;9.75;4.10;;;;;;;31.13;44.63;99696.94;4906451;28;98446;-74
2021/06/21 07:53:38;;;;;;;5.30;4.00;;;;;;;31.10;43.91;99694.22;4939077;28;99108;-73
2021/06/21 07:56:06;;;;;;;6.55;3.90;;;;;;;30.59;43.78;99694.28;4943663;28;98145;-73
2021/06/21 07:58:33;;;;;;;6.53;3.97;;;;;;;31.11;43.18;99704.16;4939717;28;98705;-79
2021/06/21 08:00:59;;;;;;;6.60;3.80;;;;;;;32.17;40.56;99703.22;4923887;28;97821;-79
2021/06/21 08:03:26;;;;;;;7.40;4.55;;;;;;;31.31;42.22;99707.75;4923955;28;97963;-73
2021/06/21 08:05:52;;;;;;;7.78;3.72;;;;;;;33.22;39.51;99701.06;4940152;28;99884;-81
2021/06/21 08:08:19;;;;;;;7.45;4.10;;;;;;;33.39;37.66;99712.97;4940562;28;98125;-81
2021/06/21 08:10:45;;;;;;;7.38;3.60;;;;;;;32.31;40.20;99708.50;4908641;28;97980;-75
2021/06/21 08:13:11;;;;;;;8.45;3.75;;;;;;;33.92;38.31;99704.31;4932935;28;98797;-79
2021/06/21 08:15:38;;;;;;;8.55;3.65;;;;;;;32.58;40.09;99699.09;4920776;28;110768;-76
2021/06/21 08:18:04;;;;;;;7.20;3.30;;;;;;;31.79;42.16;99700.84;4889558;28;98024;-80
2021/06/21 08:20:31;;;;;;;5.22;3.15;;;;;;;32.18;41.60;99705.56;4921966;28;98038;-75
2021/06/21 08:22:57;;;;;;;5.75;3.38;;;;;;;32.71;40.77;99706.34;4923578;28;98981;-80
2021/06/21 08:25:23;;;;;;;7.00;3.60;;;;;;;33.82;38.62;99717.38;4910737;28;126999;-75
2021/06/21 08:27:49;;;;;;;4.47;3.05;;;;;;;31.96;41.75;99724.78;4942260;28;98227;-76
2021/06/21 08:30:16;;;;;;;7.68;3.50;;;;;;;32.90;39.43;99717.84;4941375;28;98044;-80
2021/06/21 08:32:42;;;;;;;6.32;3.30;;;;;;;34.40;35.81;99719.25;4922570;28;98745;-81
2021/06/21 08:35:09;;;;;;;6.85;3.50;;;;;;;33.48;37.78;99726.31;4924223;28;98565;-81
2021/06/21 08:37:35;;;;;;;5.15;2.95;;;;;;;31.65;38.98;99732.56;4940966;28;105441;-79
2021/06/21 08:40:06;;;;;;;6.15;3.05;;;;;;;30.40;42.71;99729.09;4930330;28;98219;-79
2021/06/21 08:42:32;;;;;;;8.67;2.97;;;;;;;30.43;41.74;99738.59;4922578;28;99379;-74
2021/06/21 08:45:01;;;;;;;6.30;2.58;;;;;;;31.57;41.16;99731.13;4921932;28;128589;-75
2021/06/21 08:47:29;;;;;;;6.93;2.60;;;;;;;32.18;40.51;99735.44;4923015;28;98258;-74
2021/06/21 08:49:55;;;;;;;4.40;2.25;;;;;;;31.70;39.76;99731.28;4905111;28;98021;-75
2021/06/21 08:52:24;;;;;;;5.88;2.40;;;;;;;31.82;41.12;99729.84;4921564;28;98903;-80
2021/06/21 08:54:52;;;;;;;6.40;2.45;;;;;;;32.73;39.13;99734.56;4922971;28;98499;-82
2021/06/21 08:57:18;;;;;;;6.40;2.72;;;;;;;32.05;39.29;99731.78;4922553;28;102739;-80
2021/06/21 08:59:44;;;;;;;6.80;2.78;;;;;;;33.13;38.55;99733.63;4922977;28;110007;-75
2021/06/21 09:02:13;;;;;;;5.88;2.38;;;;;;;35.61;33.83;99734.00;4922786;28;98758;-81
2021/06/21 09:04:39;;;;;;;5.82;1.92;;;;;;;35.13;33.97;99731.22;4905829;28;98173;-81
2021/06/21 09:07:25;;;;;;;6.28;2.42;;;;;;;32.66;37.88;99731.19;4922660;28;97742;-74
2021/06/21 09:09:53;;;;;;;4.57;1.80;;;;;;;34.85;33.38;99732.97;4940104;28;98130;-74
2021/06/21 09:12:28;;;;;;;5.50;1.40;;;;;;;34.30;33.84;99726.72;4941978;28;98914;-77
2021/06/21 09:14:56;;;;;;;5.70;1.20;;;;;;;36.11;32.11;99732.88;4939686;28;99741;-75
2021/06/21 09:17:24;;;;;;;2.88;1.20;;;;;;;35.77;31.83;99736.59;4939496;28;98029;-80
2021/06/21 09:19:59;;;;;;;4.03;0.98;;;;;;;34.44;33.86;99729.06;4940024;28;97784;-80
2021/06/21 09:22:49;;;;;;;3.85;0.90;;;;;;;34.65;34.42;99722.03;4938176;28;98414;-79
2021/06/21 09:25:15;;;;;;;3.15;0.90;;;;;;;35.97;31.61;99722.22;4939528;28;115556;-80
2021/06/21 09:27:43;;;;;;;3.28;0.63;;;;;;;37.13;29.62;99733.22;4940841;28;98216;-80
2021/06/21 09:30:11;;;;;;;3.53;0.80;;;;;;;35.70;31.80;99734.03;4940101;28;97786;-80
2021/06/21 09:32:51;;;;;;;2.58;0.85;;;;;;;37.73;29.66;99730.56;4936298;28;98128;-80
2021/06/21 09:35:29;;;;;;;4.07;0.80;;;;;;;37.29;30.18;99719.66;4910180;28;109092;-81
2021/06/21 09:37:57;;;;;;;4.20;1.02;;;;;;;36.61;30.44;99716.91;4923141;28;97955;-80
2021/06/21 09:40:33;;;;;;;2.78;1.00;;;;;;;37.67;29.53;99721.22;4903806;28;104546;-75
2021/06/21 09:43:17;;;;;;;3.85;1.00;;;;;;;37.28;29.75;99723.72;4928359;28;98798;-80
2021/06/21 09:46:05;;;;;;;3.13;0.90;;;;;;;39.25;27.38;99725.66;4939707;28;98448;-80
2021/06/21 09:48:39;;;;;;;3.95;1.10;;;;;;;37.50;30.33;99726.38;4940916;28;98038;-75
2021/06/21 09:51:30;;;;;;;5.22;1.00;;;;;;;39.19;28.27;99721.94;4912890;28;98095;-75
2021/06/21 09:54:10;;;;;;;5.28;1.33;;;;;;;38.62;29.71;99719.94;4921284;28;99072;-78
2021/06/21 09:56:50;;;;;;;3.70;0.93;;;;;;;38.98;28.35;99726.63;4922103;28;97949;-78
2021/06/21 09:59:24;;;;;;;3.63;1.00;;;;;;;40.54;26.09;99733.53;4921883;28;98090;-73
2021/06/21 10:02:26;;;;;;;3.88;1.23;;;;;;;41.44;24.40;99729.81;4939652;28;97718;-74
2021/06/21 10:04:52;;;;;;;5.13;1.20;;;;;;;40.69;24.49;99717.34;4928068;28;98462;-74
2021/06/21 10:07:29;;;;;;;5.93;1.15;;;;;;;40.35;25.52;99723.75;4942761;28;102511;-73
2021/06/21 10:10:03;;;;;;;4.03;0.82;;;;;;;38.46;27.44;99715.50;4930858;28;98146;-74
2021/06/21 10:12:29;;;;;;;4.32;1.10;;;;;;;36.41;31.13;99707.31;4922363;28;97884;-77
2021/06/21 10:14:56;;;;;;;3.90;1.10;;;;;;;37.91;27.88;99715.72;4918961;28;100526;-73
2021/06/21 10:17:22;;;;;;;3.95;1.00;;;;;;;39.49;26.59;99717.91;4920572;28;98753;-77
2021/06/21 10:19:48;;;;;;;6.10;1.30;;;;;;;39.39;26.87;99719.28;4917832;28;126714;-76
2021/06/21 10:22:14;;;;;;;5.47;1.30;;;;;;;38.42;27.77;99714.91;4941608;28;97899;-79
2021/06/21 10:24:40;;;;;;;3.95;1.30;;;;;;;37.92;28.14;99711.63;4939254;28;98671;-76
2021/06/21 10:27:07;;;;;;;3.25;0.80;;;;;;;38.42;28.25;99711.31;4904411;28;98548;-79
2021/06/21 10:29:34;;;;;;;4.13;1.10;;;;;;;39.20;27.56;99704.53;4920992;28;98178;-75
2021/06/21 10:32:03;;;;;;;4.07;1.08;;;;;;;39.90;26.37;99701.25;4921521;28;105781;-78
2021/06/21 10:34:29;;;;;;;3.92;1.05;;;;;;;39.89;26.01;99705.34;4911116;28;117151;-76
2021/06/21 10:36:56;;;;;;;4.35;1.05;;;;;;;38.48;29.08;99703.78;4921013;28;126119;-76
2021/06/21 10:39:27;;;;;;;3.83;1.15;;;;;;;39.01;27.82;99697.50;4939746;28;98287;-78
2021/06/21 10:42:09;;;;;;;5.45;1.35;;;;;;;39.26;27.06;99702.66;4941648;28;97786;-78
2021/06/21 10:44:44;;;;;;;4.40;1.20;;;;;;;39.58;26.00;99705.78;4922869;28;98743;-77
2021/06/21 10:47:38;;;;;;;6.07;1.27;;;;;;;38.88;26.88;99700.59;4926863;28;98628;-74
2021/06/21 10:50:16;;;;;;;3.78;1.00;;;;;;;38.88;27.56;99703.41;4940962;28;97883;-74
2021/06/21 10:52:52;;;;;;;4.50;1.00;;;;;;;39.08;26.10;99702.00;4932743;28;98135;-74
2021/06/21 10:55:26;;;;;;;5.30;0.80;;;;;;;38.49;27.28;99697.66;4921751;28;98663;-74
2021/06/21 10:57:54;;;;;;;4.72;0.93;;;;;;;38.99;27.81;99697.22;4929306;28;100822;-74
2021/06/21 11:00:43;;;;;;;4.43;1.02;;;;;;;37.28;29.70;99689.22;4922223;28;99837;-74
2021/06/21 11:03:25;;;;;;;5.40;0.80;;;;;;;38.44;28.18;99691.94;4939061;28;97954;-74
2021/06/21 11:05:55;;;;;;;4.32;0.98;;;;;;;38.78;26.87;99691.41;4941004;28;98911;-74
2021/06/21 11:08:34;;;;;;;3.97;0.82;;;;;;;38.70;27.47;99695.03;4937379;28;112515;-75
2021/06/21 11:11:00;;;;;;;5.53;1.00;;;;;;;36.21;30.90;99679.66;4939915;28;98103;-75
2021/06/21 11:13:35;;;;;;;3.97;0.90;;;;;;;35.33;32.71;99671.34;4922698;28;116788;-73
2021/06/21 11:16:18;;;;;;;3.70;0.82;;;;;;;37.18;30.07;99668.81;4934168;28;98248;-75
2021/06/21 11:18:46;;;;;;;6.20;1.00;;;;;;;37.68;28.25;99666.56;4941058;28;99271;-75
2021/06/21 11:21:20;;;;;;;3.80;0.90;;;;;;;37.28;29.45;99661.16;4940880;28;98046;-75
2021/06/21 11:23:48;;;;;;;6.10;1.00;;;;;;;38.18;28.17;99666.25;4925193;28;98341;-74
2021/06/21 11:26:14;;;;;;;5.30;0.80;;;;;;;38.66;26.46;99661.44;4919151;28;98456;-75
2021/06/21 11:28:47;;;;;;;3.17;0.70;;;;;;;36.51;28.68;99661.22;4921291;28;98941;-75
2021/06/21 11:31:22;;;;;;;5.22;1.00;;;;;;;37.65;27.33;99652.66;4918508;28;98014;-73
2021/06/21 11:34:00;;;;;;;4.00;0.77;;;;;;;37.60;29.05;99651.28;4921341;28;98663;-75
2021/06/21 11:36:46;;;;;;;3.33;0.60;;;;;;;38.31;26.11;99647.88;4921148;28;98514;-74